sensor_id;sensor_type;location;lat;lon;timestamp;P1;durP1;ratioP1;P2;durP2;ratioP2
40453;SDS011;26160;51.858;4.398;2023-09-19T00:00:42;8.80;;;1.98;;
40453;SDS011;26160;51.858;4.398;2023-09-19T00:03:09;9.20;;;1.90;;
40453;SDS011;26160;51.858;4.398;2023-09-19T00:05:37;8.82;;;1.85;;
40453;SDS011;26160;51.858;4.398;2023-09-19T00:08:04;9.02;;;1.90;;
40453;SDS011;26160;51.858;4.398;2023-09-19T00:10:31;10.27;;;1.80;;
40453;SDS011;26160;51.858;4.398;2023-09-19T00:13:00;9.55;;;2.08;;
40453;SDS011;26160;51.858;4.398;2023-09-19T00:15:31;8.07;;;1.90;;
40453;SDS011;26160;51.858;4.398;2023-09-19T00:18:03;6.35;;;1.80;;
40453;SDS011;26160;51.858;4.398;2023-09-19T00:20:32;8.52;;;1.95;;
40453;SDS011;26160;51.858;4.398;2023-09-19T00:23:00;8.73;;;2.13;;
40453;SDS011;26160;51.858;4.398;2023-09-19T00:25:37;9.20;;;2.05;;
40453;SDS011;26160;51.858;4.398;2023-09-19T00:28:04;10.93;;;2.45;;
40453;SDS011;26160;51.858;4.398;2023-09-19T00:30:31;8.05;;;1.98;;
40453;SDS011;26160;51.858;4.398;2023-09-19T00:32:58;12.18;;;2.55;;
40453;SDS011;26160;51.858;4.398;2023-09-19T00:35:26;14.20;;;2.15;;
40453;SDS011;26160;51.858;4.398;2023-09-19T00:37:53;7.78;;;1.90;;
40453;SDS011;26160;51.858;4.398;2023-09-19T00:40:19;17.05;;;2.75;;
40453;SDS011;26160;51.858;4.398;2023-09-19T00:42:47;12.48;;;2.30;;
40453;SDS011;26160;51.858;4.398;2023-09-19T00:45:15;11.35;;;1.85;;
40453;SDS011;26160;51.858;4.398;2023-09-19T00:47:47;11.80;;;2.97;;
40453;SDS011;26160;51.858;4.398;2023-09-19T00:50:16;13.48;;;3.17;;
40453;SDS011;26160;51.858;4.398;2023-09-19T00:52:47;10.43;;;2.15;;
40453;SDS011;26160;51.858;4.398;2023-09-19T00:55:16;10.65;;;2.38;;
40453;SDS011;26160;51.858;4.398;2023-09-19T00:57:45;14.27;;;2.05;;
40453;SDS011;26160;51.858;4.398;2023-09-19T01:00:12;13.43;;;2.28;;
40453;SDS011;26160;51.858;4.398;2023-09-19T01:02:42;10.30;;;2.25;;
40453;SDS011;26160;51.858;4.398;2023-09-19T01:05:09;11.85;;;2.40;;
40453;SDS011;26160;51.858;4.398;2023-09-19T01:07:35;17.80;;;2.55;;
40453;SDS011;26160;51.858;4.398;2023-09-19T01:10:06;14.32;;;2.60;;
40453;SDS011;26160;51.858;4.398;2023-09-19T01:21:26;16.05;;;2.60;;
40453;SDS011;26160;51.858;4.398;2023-09-19T01:24:16;13.57;;;2.42;;
40453;SDS011;26160;51.858;4.398;2023-09-19T01:30:13;14.15;;;2.67;;
40453;SDS011;26160;51.858;4.398;2023-09-19T01:32:43;17.00;;;2.75;;
40453;SDS011;26160;51.858;4.398;2023-09-19T01:35:11;16.90;;;3.38;;
40453;SDS011;26160;51.858;4.398;2023-09-19T01:37:39;10.48;;;2.25;;
40453;SDS011;26160;51.858;4.398;2023-09-19T01:40:08;12.95;;;2.63;;
40453;SDS011;26160;51.858;4.398;2023-09-19T01:42:45;9.32;;;2.30;;
40453;SDS011;26160;51.858;4.398;2023-09-19T01:51:02;11.88;;;2.40;;
40453;SDS011;26160;51.858;4.398;2023-09-19T01:53:50;10.90;;;2.20;;
40453;SDS011;26160;51.858;4.398;2023-09-19T01:56:28;9.38;;;2.03;;
40453;SDS011;26160;51.858;4.398;2023-09-19T01:59:08;12.60;;;2.85;;
40453;SDS011;26160;51.858;4.398;2023-09-19T02:01:38;12.00;;;2.33;;
40453;SDS011;26160;51.858;4.398;2023-09-19T02:04:06;14.63;;;2.63;;
40453;SDS011;26160;51.858;4.398;2023-09-19T02:06:33;14.00;;;2.70;;
40453;SDS011;26160;51.858;4.398;2023-09-19T02:09:02;10.93;;;3.03;;
40453;SDS011;26160;51.858;4.398;2023-09-19T02:11:29;13.63;;;2.85;;
40453;SDS011;26160;51.858;4.398;2023-09-19T02:13:55;6.68;;;1.80;;
40453;SDS011;26160;51.858;4.398;2023-09-19T02:16:21;7.10;;;2.30;;
40453;SDS011;26160;51.858;4.398;2023-09-19T02:18:48;14.75;;;2.55;;
40453;SDS011;26160;51.858;4.398;2023-09-19T02:21:15;13.05;;;2.22;;
40453;SDS011;26160;51.858;4.398;2023-09-19T02:23:43;9.57;;;2.17;;
40453;SDS011;26160;51.858;4.398;2023-09-19T02:26:10;8.18;;;2.38;;
40453;SDS011;26160;51.858;4.398;2023-09-19T02:28:37;10.52;;;2.20;;
40453;SDS011;26160;51.858;4.398;2023-09-19T02:31:03;12.80;;;2.28;;
40453;SDS011;26160;51.858;4.398;2023-09-19T02:33:31;9.00;;;1.98;;
40453;SDS011;26160;51.858;4.398;2023-09-19T02:35:58;8.45;;;1.90;;
40453;SDS011;26160;51.858;4.398;2023-09-19T02:38:25;13.63;;;2.10;;
40453;SDS011;26160;51.858;4.398;2023-09-19T02:40:51;13.68;;;2.03;;
40453;SDS011;26160;51.858;4.398;2023-09-19T02:43:18;11.00;;;1.92;;
40453;SDS011;26160;51.858;4.398;2023-09-19T02:45:47;9.77;;;2.15;;
40453;SDS011;26160;51.858;4.398;2023-09-19T02:48:19;9.90;;;2.08;;
40453;SDS011;26160;51.858;4.398;2023-09-19T02:50:51;7.32;;;1.80;;
40453;SDS011;26160;51.858;4.398;2023-09-19T02:55:44;17.92;;;2.33;;
40453;SDS011;26160;51.858;4.398;2023-09-19T02:58:11;11.88;;;2.08;;
40453;SDS011;26160;51.858;4.398;2023-09-19T03:00:40;13.85;;;2.40;;
40453;SDS011;26160;51.858;4.398;2023-09-19T03:03:07;9.88;;;2.20;;
40453;SDS011;26160;51.858;4.398;2023-09-19T03:05:34;13.88;;;2.70;;
40453;SDS011;26160;51.858;4.398;2023-09-19T03:08:00;17.55;;;3.03;;
40453;SDS011;26160;51.858;4.398;2023-09-19T03:10:27;14.95;;;2.80;;
40453;SDS011;26160;51.858;4.398;2023-09-19T03:12:54;17.45;;;3.38;;
40453;SDS011;26160;51.858;4.398;2023-09-19T03:15:20;11.95;;;2.72;;
40453;SDS011;26160;51.858;4.398;2023-09-19T03:17:48;8.68;;;2.08;;
40453;SDS011;26160;51.858;4.398;2023-09-19T03:20:15;14.15;;;2.90;;
40453;SDS011;26160;51.858;4.398;2023-09-19T03:22:44;11.10;;;2.60;;
40453;SDS011;26160;51.858;4.398;2023-09-19T03:25:11;16.88;;;2.70;;
40453;SDS011;26160;51.858;4.398;2023-09-19T03:27:38;16.10;;;3.05;;
40453;SDS011;26160;51.858;4.398;2023-09-19T03:30:05;9.63;;;2.38;;
40453;SDS011;26160;51.858;4.398;2023-09-19T03:32:34;10.77;;;2.60;;
40453;SDS011;26160;51.858;4.398;2023-09-19T03:35:01;13.40;;;2.97;;
40453;SDS011;26160;51.858;4.398;2023-09-19T03:37:31;11.57;;;2.63;;
40453;SDS011;26160;51.858;4.398;2023-09-19T03:39:58;7.65;;;2.05;;
40453;SDS011;26160;51.858;4.398;2023-09-19T03:42:24;12.32;;;2.67;;
40453;SDS011;26160;51.858;4.398;2023-09-19T03:44:52;19.77;;;2.92;;
40453;SDS011;26160;51.858;4.398;2023-09-19T03:47:18;15.98;;;2.58;;
40453;SDS011;26160;51.858;4.398;2023-09-19T03:49:47;13.45;;;2.88;;
40453;SDS011;26160;51.858;4.398;2023-09-19T03:52:13;14.20;;;2.33;;
40453;SDS011;26160;51.858;4.398;2023-09-19T03:54:41;11.20;;;2.42;;
40453;SDS011;26160;51.858;4.398;2023-09-19T03:57:08;13.27;;;2.38;;
40453;SDS011;26160;51.858;4.398;2023-09-19T03:59:35;11.38;;;2.67;;
40453;SDS011;26160;51.858;4.398;2023-09-19T04:02:01;12.95;;;2.63;;
40453;SDS011;26160;51.858;4.398;2023-09-19T04:04:27;10.95;;;2.30;;
40453;SDS011;26160;51.858;4.398;2023-09-19T04:06:54;11.23;;;2.50;;
40453;SDS011;26160;51.858;4.398;2023-09-19T04:09:20;12.65;;;2.83;;
40453;SDS011;26160;51.858;4.398;2023-09-19T04:11:47;15.82;;;2.55;;
40453;SDS011;26160;51.858;4.398;2023-09-19T04:14:13;10.32;;;2.58;;
40453;SDS011;26160;51.858;4.398;2023-09-19T04:16:39;12.50;;;2.67;;
40453;SDS011;26160;51.858;4.398;2023-09-19T04:19:05;11.77;;;2.60;;
40453;SDS011;26160;51.858;4.398;2023-09-19T04:21:31;14.38;;;2.90;;
40453;SDS011;26160;51.858;4.398;2023-09-19T04:23:57;12.40;;;2.50;;
40453;SDS011;26160;51.858;4.398;2023-09-19T04:26:23;10.40;;;2.30;;
40453;SDS011;26160;51.858;4.398;2023-09-19T04:28:51;11.82;;;2.17;;
40453;SDS011;26160;51.858;4.398;2023-09-19T04:31:17;10.70;;;2.72;;
40453;SDS011;26160;51.858;4.398;2023-09-19T04:33:45;14.18;;;2.47;;
40453;SDS011;26160;51.858;4.398;2023-09-19T04:36:11;13.75;;;2.63;;
40453;SDS011;26160;51.858;4.398;2023-09-19T04:38:38;12.40;;;2.38;;
40453;SDS011;26160;51.858;4.398;2023-09-19T04:41:05;8.30;;;2.15;;
40453;SDS011;26160;51.858;4.398;2023-09-19T04:43:31;14.07;;;3.35;;
40453;SDS011;26160;51.858;4.398;2023-09-19T04:45:57;11.57;;;2.63;;
40453;SDS011;26160;51.858;4.398;2023-09-19T04:48:26;9.80;;;2.08;;
40453;SDS011;26160;51.858;4.398;2023-09-19T04:50:52;10.45;;;2.75;;
40453;SDS011;26160;51.858;4.398;2023-09-19T04:53:19;14.63;;;2.67;;
40453;SDS011;26160;51.858;4.398;2023-09-19T04:55:50;13.50;;;2.42;;
40453;SDS011;26160;51.858;4.398;2023-09-19T04:58:18;12.25;;;2.45;;
40453;SDS011;26160;51.858;4.398;2023-09-19T05:00:45;15.65;;;2.55;;
40453;SDS011;26160;51.858;4.398;2023-09-19T05:03:12;12.00;;;2.35;;
40453;SDS011;26160;51.858;4.398;2023-09-19T05:05:38;13.10;;;2.53;;
40453;SDS011;26160;51.858;4.398;2023-09-19T05:08:06;11.48;;;2.72;;
40453;SDS011;26160;51.858;4.398;2023-09-19T05:10:34;14.95;;;3.17;;
40453;SDS011;26160;51.858;4.398;2023-09-19T05:13:04;14.45;;;2.78;;
40453;SDS011;26160;51.858;4.398;2023-09-19T05:15:30;10.70;;;2.58;;
40453;SDS011;26160;51.858;4.398;2023-09-19T05:17:56;16.42;;;3.13;;
40453;SDS011;26160;51.858;4.398;2023-09-19T05:20:22;12.50;;;2.83;;
40453;SDS011;26160;51.858;4.398;2023-09-19T05:23:01;13.98;;;2.53;;
40453;SDS011;26160;51.858;4.398;2023-09-19T05:25:30;13.15;;;3.10;;
40453;SDS011;26160;51.858;4.398;2023-09-19T05:27:57;14.63;;;2.92;;
40453;SDS011;26160;51.858;4.398;2023-09-19T05:30:25;21.98;;;4.18;;
40453;SDS011;26160;51.858;4.398;2023-09-19T05:32:53;12.32;;;2.50;;
40453;SDS011;26160;51.858;4.398;2023-09-19T05:35:20;12.02;;;2.42;;
40453;SDS011;26160;51.858;4.398;2023-09-19T05:37:47;18.10;;;3.03;;
40453;SDS011;26160;51.858;4.398;2023-09-19T05:40:19;11.13;;;2.92;;
40453;SDS011;26160;51.858;4.398;2023-09-19T05:42:45;14.75;;;2.67;;
40453;SDS011;26160;51.858;4.398;2023-09-19T05:45:12;10.75;;;3.13;;
40453;SDS011;26160;51.858;4.398;2023-09-19T05:47:39;13.65;;;2.38;;
40453;SDS011;26160;51.858;4.398;2023-09-19T05:50:11;18.85;;;3.95;;
40453;SDS011;26160;51.858;4.398;2023-09-19T05:52:38;11.98;;;2.60;;
40453;SDS011;26160;51.858;4.398;2023-09-19T05:55:04;15.38;;;3.65;;
40453;SDS011;26160;51.858;4.398;2023-09-19T05:57:35;14.23;;;2.72;;
40453;SDS011;26160;51.858;4.398;2023-09-19T06:00:05;12.38;;;3.00;;
40453;SDS011;26160;51.858;4.398;2023-09-19T06:02:36;13.40;;;2.70;;
40453;SDS011;26160;51.858;4.398;2023-09-19T06:05:06;11.40;;;2.40;;
40453;SDS011;26160;51.858;4.398;2023-09-19T06:07:36;15.30;;;2.97;;
40453;SDS011;26160;51.858;4.398;2023-09-19T06:10:06;11.45;;;2.67;;
40453;SDS011;26160;51.858;4.398;2023-09-19T06:12:33;11.60;;;2.80;;
40453;SDS011;26160;51.858;4.398;2023-09-19T06:15:03;16.17;;;3.17;;
40453;SDS011;26160;51.858;4.398;2023-09-19T06:17:34;11.45;;;2.88;;
40453;SDS011;26160;51.858;4.398;2023-09-19T06:20:06;13.60;;;2.92;;
40453;SDS011;26160;51.858;4.398;2023-09-19T06:22:40;18.92;;;3.00;;
40453;SDS011;26160;51.858;4.398;2023-09-19T06:25:07;13.55;;;2.83;;
40453;SDS011;26160;51.858;4.398;2023-09-19T06:27:38;10.63;;;2.40;;
40453;SDS011;26160;51.858;4.398;2023-09-19T06:30:08;13.52;;;2.60;;
40453;SDS011;26160;51.858;4.398;2023-09-19T06:32:37;15.70;;;2.83;;
40453;SDS011;26160;51.858;4.398;2023-09-19T06:35:03;14.52;;;3.85;;
40453;SDS011;26160;51.858;4.398;2023-09-19T06:37:33;15.70;;;2.92;;
40453;SDS011;26160;51.858;4.398;2023-09-19T06:40:00;12.02;;;2.20;;
40453;SDS011;26160;51.858;4.398;2023-09-19T06:42:26;15.55;;;2.78;;
40453;SDS011;26160;51.858;4.398;2023-09-19T06:44:53;12.20;;;2.85;;
40453;SDS011;26160;51.858;4.398;2023-09-19T06:47:20;14.77;;;3.60;;
40453;SDS011;26160;51.858;4.398;2023-09-19T06:49:46;20.17;;;3.35;;
40453;SDS011;26160;51.858;4.398;2023-09-19T06:52:13;14.15;;;3.22;;
40453;SDS011;26160;51.858;4.398;2023-09-19T06:54:40;19.63;;;4.00;;
40453;SDS011;26160;51.858;4.398;2023-09-19T06:57:07;21.35;;;3.63;;
40453;SDS011;26160;51.858;4.398;2023-09-19T06:59:35;14.52;;;4.03;;
40453;SDS011;26160;51.858;4.398;2023-09-19T07:02:02;15.15;;;3.45;;
40453;SDS011;26160;51.858;4.398;2023-09-19T07:04:31;18.95;;;2.75;;
40453;SDS011;26160;51.858;4.398;2023-09-19T07:06:58;15.27;;;3.25;;
40453;SDS011;26160;51.858;4.398;2023-09-19T07:09:24;13.82;;;3.13;;
40453;SDS011;26160;51.858;4.398;2023-09-19T07:11:52;16.45;;;2.78;;
40453;SDS011;26160;51.858;4.398;2023-09-19T07:14:19;12.45;;;3.63;;
40453;SDS011;26160;51.858;4.398;2023-09-19T07:16:45;9.90;;;2.90;;
40453;SDS011;26160;51.858;4.398;2023-09-19T07:19:13;25.08;;;4.18;;
40453;SDS011;26160;51.858;4.398;2023-09-19T07:21:40;20.45;;;3.45;;
40453;SDS011;26160;51.858;4.398;2023-09-19T07:24:07;14.93;;;3.75;;
40453;SDS011;26160;51.858;4.398;2023-09-19T07:26:34;20.30;;;3.17;;
40453;SDS011;26160;51.858;4.398;2023-09-19T07:29:00;19.02;;;3.53;;
40453;SDS011;26160;51.858;4.398;2023-09-19T07:31:29;20.60;;;3.45;;
40453;SDS011;26160;51.858;4.398;2023-09-19T07:33:56;20.02;;;4.15;;
40453;SDS011;26160;51.858;4.398;2023-09-19T07:36:22;20.02;;;3.80;;
40453;SDS011;26160;51.858;4.398;2023-09-19T07:38:49;15.52;;;2.95;;
40453;SDS011;26160;51.858;4.398;2023-09-19T07:41:16;16.42;;;3.33;;
40453;SDS011;26160;51.858;4.398;2023-09-19T07:43:42;16.60;;;3.10;;
40453;SDS011;26160;51.858;4.398;2023-09-19T07:46:10;18.13;;;3.10;;
40453;SDS011;26160;51.858;4.398;2023-09-19T07:48:36;19.02;;;3.35;;
40453;SDS011;26160;51.858;4.398;2023-09-19T07:51:04;21.92;;;3.00;;
40453;SDS011;26160;51.858;4.398;2023-09-19T07:53:31;12.68;;;2.80;;
40453;SDS011;26160;51.858;4.398;2023-09-19T07:56:05;17.83;;;3.30;;
40453;SDS011;26160;51.858;4.398;2023-09-19T07:58:32;14.60;;;2.83;;
40453;SDS011;26160;51.858;4.398;2023-09-19T08:01:03;16.65;;;3.65;;
40453;SDS011;26160;51.858;4.398;2023-09-19T08:03:36;13.52;;;3.28;;
40453;SDS011;26160;51.858;4.398;2023-09-19T08:06:06;10.80;;;3.03;;
40453;SDS011;26160;51.858;4.398;2023-09-19T08:08:33;14.32;;;3.40;;
40453;SDS011;26160;51.858;4.398;2023-09-19T08:11:02;16.42;;;3.40;;
40453;SDS011;26160;51.858;4.398;2023-09-19T08:13:41;15.43;;;3.50;;
40453;SDS011;26160;51.858;4.398;2023-09-19T08:16:10;20.80;;;4.13;;
40453;SDS011;26160;51.858;4.398;2023-09-19T08:18:36;11.98;;;3.17;;
40453;SDS011;26160;51.858;4.398;2023-09-19T08:21:06;14.40;;;3.28;;
40453;SDS011;26160;51.858;4.398;2023-09-19T08:23:39;13.45;;;3.38;;
40453;SDS011;26160;51.858;4.398;2023-09-19T08:26:05;13.00;;;2.90;;
40453;SDS011;26160;51.858;4.398;2023-09-19T08:28:34;16.58;;;3.78;;
40453;SDS011;26160;51.858;4.398;2023-09-19T08:31:02;18.33;;;3.53;;
40453;SDS011;26160;51.858;4.398;2023-09-19T08:33:32;17.40;;;3.05;;
40453;SDS011;26160;51.858;4.398;2023-09-19T08:35:59;13.57;;;3.47;;
40453;SDS011;26160;51.858;4.398;2023-09-19T08:38:25;16.50;;;3.20;;
40453;SDS011;26160;51.858;4.398;2023-09-19T08:40:58;14.52;;;2.92;;
40453;SDS011;26160;51.858;4.398;2023-09-19T08:43:26;20.00;;;5.10;;
40453;SDS011;26160;51.858;4.398;2023-09-19T08:46:02;18.52;;;3.70;;
40453;SDS011;26160;51.858;4.398;2023-09-19T08:48:29;14.15;;;3.20;;
40453;SDS011;26160;51.858;4.398;2023-09-19T08:51:05;16.05;;;3.42;;
40453;SDS011;26160;51.858;4.398;2023-09-19T08:56:41;22.65;;;4.55;;
40453;SDS011;26160;51.858;4.398;2023-09-19T08:59:12;15.23;;;3.15;;
40453;SDS011;26160;51.858;4.398;2023-09-19T09:01:40;18.70;;;3.45;;
40453;SDS011;26160;51.858;4.398;2023-09-19T09:04:10;18.55;;;3.55;;
40453;SDS011;26160;51.858;4.398;2023-09-19T09:06:38;16.80;;;3.35;;
40453;SDS011;26160;51.858;4.398;2023-09-19T09:09:08;21.45;;;3.67;;
40453;SDS011;26160;51.858;4.398;2023-09-19T09:11:36;15.45;;;3.40;;
40453;SDS011;26160;51.858;4.398;2023-09-19T09:14:05;12.20;;;3.60;;
40453;SDS011;26160;51.858;4.398;2023-09-19T09:16:33;14.45;;;3.05;;
40453;SDS011;26160;51.858;4.398;2023-09-19T09:19:00;16.83;;;3.17;;
40453;SDS011;26160;51.858;4.398;2023-09-19T09:21:27;19.15;;;3.38;;
40453;SDS011;26160;51.858;4.398;2023-09-19T09:23:54;22.25;;;3.78;;
40453;SDS011;26160;51.858;4.398;2023-09-19T09:29:04;18.92;;;3.08;;
40453;SDS011;26160;51.858;4.398;2023-09-19T09:31:30;14.10;;;3.33;;
40453;SDS011;26160;51.858;4.398;2023-09-19T09:33:57;15.05;;;2.85;;
40453;SDS011;26160;51.858;4.398;2023-09-19T09:36:36;13.23;;;2.90;;
40453;SDS011;26160;51.858;4.398;2023-09-19T09:39:04;11.80;;;2.72;;
40453;SDS011;26160;51.858;4.398;2023-09-19T09:41:50;15.57;;;3.97;;
40453;SDS011;26160;51.858;4.398;2023-09-19T09:44:17;13.07;;;2.90;;
40453;SDS011;26160;51.858;4.398;2023-09-19T09:46:48;14.18;;;2.67;;
40453;SDS011;26160;51.858;4.398;2023-09-19T09:49:23;10.98;;;2.75;;
40453;SDS011;26160;51.858;4.398;2023-09-19T09:51:58;16.08;;;2.45;;
40453;SDS011;26160;51.858;4.398;2023-09-19T09:54:57;13.63;;;2.40;;
40453;SDS011;26160;51.858;4.398;2023-09-19T09:57:33;13.68;;;2.72;;
40453;SDS011;26160;51.858;4.398;2023-09-19T10:00:00;11.75;;;3.13;;
40453;SDS011;26160;51.858;4.398;2023-09-19T10:02:39;8.77;;;2.22;;
40453;SDS011;26160;51.858;4.398;2023-09-19T10:05:19;12.50;;;3.35;;
40453;SDS011;26160;51.858;4.398;2023-09-19T10:07:46;15.52;;;3.00;;
40453;SDS011;26160;51.858;4.398;2023-09-19T10:13:09;10.98;;;2.60;;
40453;SDS011;26160;51.858;4.398;2023-09-19T10:15:44;18.10;;;3.58;;
40453;SDS011;26160;51.858;4.398;2023-09-19T10:18:24;11.35;;;2.67;;
40453;SDS011;26160;51.858;4.398;2023-09-19T10:20:53;12.68;;;2.47;;
40453;SDS011;26160;51.858;4.398;2023-09-19T10:23:21;10.77;;;2.35;;
40453;SDS011;26160;51.858;4.398;2023-09-19T10:25:51;9.60;;;2.25;;
40453;SDS011;26160;51.858;4.398;2023-09-19T10:28:18;12.00;;;2.75;;
40453;SDS011;26160;51.858;4.398;2023-09-19T10:30:53;8.40;;;2.00;;
40453;SDS011;26160;51.858;4.398;2023-09-19T10:33:23;8.88;;;2.10;;
40453;SDS011;26160;51.858;4.398;2023-09-19T10:35:53;10.35;;;2.00;;
40453;SDS011;26160;51.858;4.398;2023-09-19T10:38:23;12.07;;;1.92;;
40453;SDS011;26160;51.858;4.398;2023-09-19T10:40:50;10.88;;;2.00;;
40453;SDS011;26160;51.858;4.398;2023-09-19T10:43:26;8.63;;;2.22;;
40453;SDS011;26160;51.858;4.398;2023-09-19T10:46:03;7.88;;;1.80;;
40453;SDS011;26160;51.858;4.398;2023-09-19T10:48:32;9.23;;;1.67;;
40453;SDS011;26160;51.858;4.398;2023-09-19T10:53:39;9.82;;;1.85;;
40453;SDS011;26160;51.858;4.398;2023-09-19T10:56:15;7.38;;;1.90;;
40453;SDS011;26160;51.858;4.398;2023-09-19T10:58:47;14.32;;;1.95;;
40453;SDS011;26160;51.858;4.398;2023-09-19T11:01:14;13.02;;;2.33;;
40453;SDS011;26160;51.858;4.398;2023-09-19T11:03:42;12.02;;;1.77;;
40453;SDS011;26160;51.858;4.398;2023-09-19T11:06:16;9.95;;;2.00;;
40453;SDS011;26160;51.858;4.398;2023-09-19T11:17:29;4.57;;;1.33;;
40453;SDS011;26160;51.858;4.398;2023-09-19T11:30:33;8.82;;;2.03;;
40453;SDS011;26160;51.858;4.398;2023-09-19T11:33:19;8.05;;;1.40;;
40453;SDS011;26160;51.858;4.398;2023-09-19T11:36:07;9.32;;;2.45;;
40453;SDS011;26160;51.858;4.398;2023-09-19T11:49:18;7.93;;;1.47;;
40453;SDS011;26160;51.858;4.398;2023-09-19T11:51:50;12.30;;;2.28;;
40453;SDS011;26160;51.858;4.398;2023-09-19T11:54:20;11.55;;;1.73;;
40453;SDS011;26160;51.858;4.398;2023-09-19T11:56:53;11.30;;;2.13;;
40453;SDS011;26160;51.858;4.398;2023-09-19T11:59:23;6.05;;;1.23;;
40453;SDS011;26160;51.858;4.398;2023-09-19T12:01:58;8.00;;;1.58;;
40453;SDS011;26160;51.858;4.398;2023-09-19T12:04:40;8.82;;;1.83;;
40453;SDS011;26160;51.858;4.398;2023-09-19T12:07:09;5.35;;;1.35;;
40453;SDS011;26160;51.858;4.398;2023-09-19T12:09:50;10.20;;;1.67;;
40453;SDS011;26160;51.858;4.398;2023-09-19T12:12:31;7.32;;;1.63;;
40453;SDS011;26160;51.858;4.398;2023-09-19T12:14:59;7.80;;;1.50;;
40453;SDS011;26160;51.858;4.398;2023-09-19T12:20:20;7.05;;;1.10;;
40453;SDS011;26160;51.858;4.398;2023-09-19T12:22:47;6.80;;;1.05;;
40453;SDS011;26160;51.858;4.398;2023-09-19T12:25:15;6.57;;;1.30;;
40453;SDS011;26160;51.858;4.398;2023-09-19T12:27:47;11.55;;;1.58;;
40453;SDS011;26160;51.858;4.398;2023-09-19T12:30:15;5.68;;;1.27;;
40453;SDS011;26160;51.858;4.398;2023-09-19T12:32:44;5.45;;;1.52;;
40453;SDS011;26160;51.858;4.398;2023-09-19T12:35:27;5.07;;;1.25;;
40453;SDS011;26160;51.858;4.398;2023-09-19T12:37:54;5.18;;;1.35;;
40453;SDS011;26160;51.858;4.398;2023-09-19T12:40:21;4.75;;;1.33;;
40453;SDS011;26160;51.858;4.398;2023-09-19T12:45:24;8.35;;;1.40;;
40453;SDS011;26160;51.858;4.398;2023-09-19T12:51:04;4.32;;;1.10;;
40453;SDS011;26160;51.858;4.398;2023-09-19T12:53:42;7.65;;;1.55;;
40453;SDS011;26160;51.858;4.398;2023-09-19T12:56:11;11.27;;;2.05;;
40453;SDS011;26160;51.858;4.398;2023-09-19T12:58:57;7.10;;;2.25;;
40453;SDS011;26160;51.858;4.398;2023-09-19T13:01:26;5.60;;;1.33;;
40453;SDS011;26160;51.858;4.398;2023-09-19T13:06:45;8.40;;;1.95;;
40453;SDS011;26160;51.858;4.398;2023-09-19T13:09:15;14.07;;;1.92;;
40453;SDS011;26160;51.858;4.398;2023-09-19T13:11:43;9.43;;;1.50;;
40453;SDS011;26160;51.858;4.398;2023-09-19T13:14:16;8.85;;;1.80;;
40453;SDS011;26160;51.858;4.398;2023-09-19T13:16:54;8.70;;;2.65;;
40453;SDS011;26160;51.858;4.398;2023-09-19T13:25:08;7.35;;;1.75;;
40453;SDS011;26160;51.858;4.398;2023-09-19T13:27:55;5.75;;;1.60;;
40453;SDS011;26160;51.858;4.398;2023-09-19T13:30:22;8.63;;;1.85;;
40453;SDS011;26160;51.858;4.398;2023-09-19T13:33:10;13.75;;;2.60;;
40453;SDS011;26160;51.858;4.398;2023-09-19T13:35:38;8.85;;;2.10;;
40453;SDS011;26160;51.858;4.398;2023-09-19T13:38:07;12.18;;;2.80;;
40453;SDS011;26160;51.858;4.398;2023-09-19T13:40:38;8.80;;;2.00;;
40453;SDS011;26160;51.858;4.398;2023-09-19T13:43:05;7.22;;;2.63;;
40453;SDS011;26160;51.858;4.398;2023-09-19T13:45:32;7.43;;;1.85;;
40453;SDS011;26160;51.858;4.398;2023-09-19T13:47:58;8.07;;;2.22;;
40453;SDS011;26160;51.858;4.398;2023-09-19T13:50:24;7.55;;;2.17;;
40453;SDS011;26160;51.858;4.398;2023-09-19T13:52:52;7.05;;;2.35;;
40453;SDS011;26160;51.858;4.398;2023-09-19T13:55:19;7.00;;;2.30;;
40453;SDS011;26160;51.858;4.398;2023-09-19T13:57:49;9.70;;;2.50;;
40453;SDS011;26160;51.858;4.398;2023-09-19T14:00:20;8.85;;;2.38;;
40453;SDS011;26160;51.858;4.398;2023-09-19T14:02:48;9.68;;;2.17;;
40453;SDS011;26160;51.858;4.398;2023-09-19T14:05:14;10.35;;;2.40;;
40453;SDS011;26160;51.858;4.398;2023-09-19T14:07:45;8.63;;;2.08;;
40453;SDS011;26160;51.858;4.398;2023-09-19T14:10:11;7.93;;;2.20;;
40453;SDS011;26160;51.858;4.398;2023-09-19T14:12:38;12.88;;;2.50;;
40453;SDS011;26160;51.858;4.398;2023-09-19T14:15:06;11.63;;;2.50;;
40453;SDS011;26160;51.858;4.398;2023-09-19T14:17:37;11.77;;;2.65;;
40453;SDS011;26160;51.858;4.398;2023-09-19T14:20:03;12.27;;;2.58;;
40453;SDS011;26160;51.858;4.398;2023-09-19T14:22:32;9.88;;;2.28;;
40453;SDS011;26160;51.858;4.398;2023-09-19T14:24:58;7.10;;;1.83;;
40453;SDS011;26160;51.858;4.398;2023-09-19T14:27:25;11.02;;;2.33;;
40453;SDS011;26160;51.858;4.398;2023-09-19T14:29:51;14.07;;;2.15;;
40453;SDS011;26160;51.858;4.398;2023-09-19T14:32:17;6.18;;;2.20;;
40453;SDS011;26160;51.858;4.398;2023-09-19T14:34:43;9.63;;;2.35;;
40453;SDS011;26160;51.858;4.398;2023-09-19T14:37:09;9.32;;;2.22;;
40453;SDS011;26160;51.858;4.398;2023-09-19T14:39:36;9.35;;;1.65;;
40453;SDS011;26160;51.858;4.398;2023-09-19T14:42:06;10.90;;;2.13;;
40453;SDS011;26160;51.858;4.398;2023-09-19T14:44:32;10.55;;;3.03;;
40453;SDS011;26160;51.858;4.398;2023-09-19T14:46:58;14.00;;;2.70;;
40453;SDS011;26160;51.858;4.398;2023-09-19T14:49:24;11.00;;;3.10;;
40453;SDS011;26160;51.858;4.398;2023-09-19T14:51:50;11.77;;;3.50;;
40453;SDS011;26160;51.858;4.398;2023-09-19T14:54:17;9.35;;;2.80;;
40453;SDS011;26160;51.858;4.398;2023-09-19T14:56:49;16.08;;;3.95;;
40453;SDS011;26160;51.858;4.398;2023-09-19T14:59:19;11.18;;;3.10;;
40453;SDS011;26160;51.858;4.398;2023-09-19T15:01:45;11.10;;;2.45;;
40453;SDS011;26160;51.858;4.398;2023-09-19T15:04:15;9.15;;;2.70;;
40453;SDS011;26160;51.858;4.398;2023-09-19T15:06:41;10.93;;;2.45;;
40453;SDS011;26160;51.858;4.398;2023-09-19T15:09:07;8.77;;;2.33;;
40453;SDS011;26160;51.858;4.398;2023-09-19T15:11:35;10.35;;;2.40;;
40453;SDS011;26160;51.858;4.398;2023-09-19T15:14:01;13.90;;;2.60;;
40453;SDS011;26160;51.858;4.398;2023-09-19T15:16:29;11.15;;;2.95;;
40453;SDS011;26160;51.858;4.398;2023-09-19T15:18:55;9.50;;;2.55;;
40453;SDS011;26160;51.858;4.398;2023-09-19T15:21:21;11.38;;;2.45;;
40453;SDS011;26160;51.858;4.398;2023-09-19T15:23:49;11.88;;;2.67;;
40453;SDS011;26160;51.858;4.398;2023-09-19T15:26:15;13.18;;;2.42;;
40453;SDS011;26160;51.858;4.398;2023-09-19T15:28:47;11.35;;;3.42;;
40453;SDS011;26160;51.858;4.398;2023-09-19T15:31:13;11.88;;;2.75;;
40453;SDS011;26160;51.858;4.398;2023-09-19T15:33:40;12.15;;;2.58;;
40453;SDS011;26160;51.858;4.398;2023-09-19T15:36:10;12.00;;;2.53;;
40453;SDS011;26160;51.858;4.398;2023-09-19T15:41:30;7.72;;;2.40;;
40453;SDS011;26160;51.858;4.398;2023-09-19T15:43:58;11.02;;;2.72;;
40453;SDS011;26160;51.858;4.398;2023-09-19T15:46:26;11.85;;;3.70;;
40453;SDS011;26160;51.858;4.398;2023-09-19T15:48:55;10.57;;;2.88;;
40453;SDS011;26160;51.858;4.398;2023-09-19T15:51:22;10.13;;;2.85;;
40453;SDS011;26160;51.858;4.398;2023-09-19T15:53:50;10.88;;;2.65;;
40453;SDS011;26160;51.858;4.398;2023-09-19T15:56:19;8.73;;;2.67;;
40453;SDS011;26160;51.858;4.398;2023-09-19T15:58:47;10.48;;;2.65;;
40453;SDS011;26160;51.858;4.398;2023-09-19T16:01:14;10.13;;;2.40;;
40453;SDS011;26160;51.858;4.398;2023-09-19T16:03:51;11.30;;;2.55;;
40453;SDS011;26160;51.858;4.398;2023-09-19T16:06:20;10.07;;;2.97;;
40453;SDS011;26160;51.858;4.398;2023-09-19T16:08:49;19.13;;;2.90;;
40453;SDS011;26160;51.858;4.398;2023-09-19T16:11:17;10.82;;;2.53;;